createdAt,value
2023-03-19T00:02:22.754Z,30.79
2023-03-19T00:04:52.969Z,30.82
2023-03-19T00:07:23.211Z,30.81
2023-03-19T00:09:53.632Z,30.84
2023-03-19T00:12:24.196Z,30.82
2023-03-19T00:14:54.504Z,30.78
2023-03-19T00:17:25.322Z,30.80
2023-03-19T00:19:55.611Z,30.81
2023-03-19T00:22:25.877Z,30.94
2023-03-19T00:24:57.036Z,30.97
2023-03-19T00:27:27.880Z,30.95
2023-03-19T00:29:58.044Z,31.06
2023-03-19T00:32:28.803Z,31.02
2023-03-19T00:34:59.121Z,31.02
2023-03-19T00:37:30.160Z,31.05
2023-03-19T00:40:00.662Z,30.97
2023-03-19T00:42:30.741Z,30.96
2023-03-19T00:45:00.642Z,31.02
2023-03-19T00:47:30.771Z,31.01
2023-03-19T00:50:01.021Z,31.03
2023-03-19T00:52:31.082Z,31.08
2023-03-19T00:55:01.225Z,31.04
2023-03-19T00:57:31.973Z,31.05
2023-03-19T01:00:03.125Z,31.09
2023-03-19T01:02:35.184Z,31.10
2023-03-19T01:05:05.624Z,31.14
2023-03-19T01:07:35.868Z,31.11
2023-03-19T01:10:07.099Z,31.14
2023-03-19T01:12:37.381Z,31.08
2023-03-19T01:15:16.125Z,31.07
2023-03-19T01:17:46.350Z,31.04
2023-03-19T01:20:22.267Z,31.04
2023-03-19T01:22:53.236Z,31.06
2023-03-19T01:25:24.454Z,31.05
2023-03-19T01:28:04.088Z,31.07
2023-03-19T01:30:34.691Z,31.09
2023-03-19T01:33:17.886Z,31.07
2023-03-19T01:36:07.369Z,31.05
2023-03-19T01:38:52.136Z,31.01
2023-03-19T01:41:22.572Z,31.10
2023-03-19T01:43:54.839Z,31.06
2023-03-19T01:47:02.214Z,31.14
2023-03-19T01:49:42.688Z,31.21
2023-03-19T01:55:30.354Z,31.20
2023-03-19T01:58:15.599Z,31.19
2023-03-19T02:01:16.572Z,31.22
2023-03-19T02:03:50.513Z,31.27
2023-03-19T02:06:32.536Z,31.32
2023-03-19T02:09:03.264Z,31.36
2023-03-19T02:11:34.467Z,31.38
2023-03-19T02:14:04.471Z,31.37
2023-03-19T02:16:34.722Z,31.39
2023-03-19T02:19:05.068Z,31.43
2023-03-19T02:21:35.912Z,31.40
2023-03-19T02:24:19.881Z,31.43
2023-03-19T02:27:05.930Z,31.40
2023-03-19T02:29:36.685Z,31.48
2023-03-19T02:32:07.419Z,31.51
2023-03-19T02:34:42.393Z,31.45
2023-03-19T02:37:39.016Z,31.49
2023-03-19T02:40:15.857Z,31.56
2023-03-19T02:42:46.024Z,31.62
2023-03-19T02:45:17.109Z,31.67
2023-03-19T02:47:47.242Z,31.68
2023-03-19T02:50:17.264Z,31.69
2023-03-19T02:52:47.431Z,31.71
2023-03-19T02:55:20.934Z,31.76
2023-03-19T02:57:52.077Z,31.80
2023-03-19T03:00:23.006Z,31.84
2023-03-19T03:02:53.637Z,31.87
2023-03-19T03:05:24.791Z,31.89
2023-03-19T03:07:55.994Z,31.93
2023-03-19T03:10:26.131Z,31.87
2023-03-19T03:12:56.475Z,31.88
2023-03-19T03:16:15.314Z,31.85
2023-03-19T03:18:45.546Z,31.83
2023-03-19T03:21:16.327Z,31.76
2023-03-19T03:23:47.227Z,31.73
2023-03-19T03:26:17.993Z,31.71
2023-03-19T03:28:48.189Z,31.68
2023-03-19T03:31:20.248Z,31.66
2023-03-19T03:33:52.307Z,31.68
2023-03-19T03:36:22.486Z,31.69
2023-03-19T03:38:52.612Z,31.69
2023-03-19T03:41:23.698Z,31.74
2023-03-19T03:43:54.557Z,31.75
2023-03-19T03:46:27.740Z,31.78
2023-03-19T03:48:58.196Z,31.74
2023-03-19T03:51:28.849Z,31.74
2023-03-19T03:54:00.045Z,31.80
2023-03-19T03:56:30.357Z,31.77
2023-03-19T03:59:00.423Z,31.75
2023-03-19T04:01:31.316Z,31.80
2023-03-19T04:04:02.592Z,31.77
2023-03-19T04:06:33.398Z,31.79
2023-03-19T04:09:23.085Z,31.82
2023-03-19T04:11:54.268Z,31.85
2023-03-19T04:14:24.925Z,31.85
2023-03-19T04:16:55.417Z,31.85
2023-03-19T04:19:25.591Z,31.83
2023-03-19T04:21:55.700Z,31.83
2023-03-19T04:24:26.184Z,31.83
2023-03-19T04:26:56.357Z,31.82
2023-03-19T04:29:26.501Z,31.83
2023-03-19T04:31:56.624Z,31.80
2023-03-19T04:34:27.713Z,31.84
2023-03-19T04:36:58.663Z,31.86
2023-03-19T04:39:29.385Z,31.86
2023-03-19T04:42:00.848Z,31.87
2023-03-19T04:44:37.501Z,31.94
2023-03-19T04:47:08.287Z,31.91
2023-03-19T04:49:51.102Z,31.93
2023-03-19T04:52:22.658Z,31.90
2023-03-19T04:54:53.401Z,31.86
2023-03-19T04:57:23.586Z,31.88
2023-03-19T04:59:56.432Z,31.89
2023-03-19T05:02:26.953Z,31.98
2023-03-19T05:04:58.758Z,31.92
2023-03-19T05:07:29.478Z,31.97
2023-03-19T05:10:02.627Z,31.94
2023-03-19T05:12:33.022Z,31.94
2023-03-19T05:15:03.930Z,32.01
2023-03-19T05:17:38.695Z,32.00
2023-03-19T05:20:17.569Z,32.18
2023-03-19T05:22:55.319Z,32.24
2023-03-19T05:25:37.572Z,32.25
2023-03-19T05:28:10.972Z,32.20
2023-03-19T05:30:41.476Z,32.34
2023-03-19T05:33:20.122Z,32.40
2023-03-19T05:35:51.006Z,32.46
2023-03-19T05:38:26.872Z,32.43
2023-03-19T05:41:10.272Z,32.43
2023-03-19T05:43:48.759Z,32.39
2023-03-19T05:46:34.676Z,32.46
2023-03-19T05:49:04.862Z,32.48
2023-03-19T05:51:36.587Z,32.60
2023-03-19T05:54:07.022Z,32.63
2023-03-19T05:56:39.521Z,32.66
2023-03-19T05:59:48.216Z,32.59
2023-03-19T06:02:38.599Z,32.58
2023-03-19T06:05:34.854Z,32.54
2023-03-19T06:08:13.488Z,32.50
2023-03-19T06:11:02.025Z,32.57
2023-03-19T06:13:32.702Z,32.60
2023-03-19T06:16:07.644Z,32.60
2023-03-19T06:18:41.461Z,32.63
2023-03-19T06:21:14.528Z,32.67
2023-03-19T06:23:44.541Z,32.67
2023-03-19T06:26:18.006Z,32.68
2023-03-19T06:28:56.302Z,32.70
2023-03-19T06:31:26.918Z,32.62
2023-03-19T06:34:01.266Z,32.63
2023-03-19T06:36:40.552Z,32.67
2023-03-19T06:39:13.386Z,32.77
2023-03-19T06:41:43.737Z,32.71
2023-03-19T06:44:19.215Z,32.75
2023-03-19T06:46:49.262Z,32.77
2023-03-19T06:49:23.790Z,32.82
2023-03-19T06:51:54.869Z,32.90
2023-03-19T06:54:24.669Z,32.86
2023-03-19T06:56:54.580Z,32.85
2023-03-19T06:59:24.835Z,32.98
2023-03-19T07:01:54.911Z,32.99
2023-03-19T07:04:25.087Z,33.00
2023-03-19T07:06:55.234Z,33.06
2023-03-19T07:09:25.704Z,33.11
2023-03-19T07:11:55.898Z,33.05
2023-03-19T07:14:26.727Z,33.00
2023-03-19T07:16:56.811Z,33.05
2023-03-19T07:19:26.849Z,33.11
2023-03-19T07:21:57.032Z,33.15
2023-03-19T07:24:27.154Z,33.06
2023-03-19T07:26:57.130Z,33.12
2023-03-19T07:29:27.219Z,33.15
2023-03-19T07:31:57.441Z,33.15
2023-03-19T07:34:28.535Z,33.14
2023-03-19T07:36:58.930Z,33.16
2023-03-19T07:39:28.795Z,33.13
2023-03-19T07:41:58.906Z,33.17
2023-03-19T07:44:29.026Z,33.12
2023-03-19T07:46:59.147Z,33.20
2023-03-19T07:49:29.059Z,33.18
2023-03-19T07:51:59.033Z,33.16
2023-03-19T07:54:28.888Z,33.20
2023-03-19T07:56:58.757Z,33.30
2023-03-19T07:59:28.858Z,33.22
2023-03-19T08:01:58.740Z,33.27
2023-03-19T08:04:29.353Z,33.28
2023-03-19T08:06:59.450Z,33.24
2023-03-19T08:09:29.784Z,33.30
2023-03-19T08:11:59.851Z,33.27
2023-03-19T08:14:29.727Z,33.21
2023-03-19T08:16:59.899Z,33.35
2023-03-19T08:19:30.399Z,33.32
2023-03-19T08:22:00.301Z,33.39
2023-03-19T08:24:30.510Z,33.39
2023-03-19T08:27:00.893Z,33.38
2023-03-19T08:29:31.820Z,33.37
2023-03-19T08:32:03.386Z,33.37
2023-03-19T08:34:33.735Z,33.36
2023-03-19T08:37:04.274Z,33.36
2023-03-19T08:39:34.347Z,33.37
2023-03-19T08:42:04.181Z,33.32
2023-03-19T08:44:34.356Z,33.45
2023-03-19T08:47:04.890Z,33.46
2023-03-19T08:49:35.491Z,33.40
2023-03-19T08:52:05.665Z,33.37
2023-03-19T08:54:36.006Z,33.39
2023-03-19T08:57:06.497Z,33.40
2023-03-19T08:59:36.644Z,33.34
2023-03-19T09:02:06.636Z,33.28
2023-03-19T09:04:41.146Z,33.36
2023-03-19T09:07:15.280Z,33.40
2023-03-19T09:09:47.170Z,33.31
2023-03-19T09:12:19.136Z,33.36
2023-03-19T09:14:49.108Z,33.38
2023-03-19T09:17:20.384Z,33.36
2023-03-19T09:19:50.599Z,33.38
2023-03-19T09:22:20.673Z,33.37
2023-03-19T09:24:50.666Z,33.35
2023-03-19T09:27:21.288Z,33.36
2023-03-19T09:29:51.413Z,33.18
2023-03-19T09:32:21.725Z,33.14
2023-03-19T09:34:51.794Z,33.06
2023-03-19T09:37:21.821Z,33.06
2023-03-19T09:39:52.014Z,32.99
2023-03-19T09:42:39.670Z,32.97
2023-03-19T09:45:21.363Z,32.95
2023-03-19T09:47:58.388Z,32.95
2023-03-19T09:50:34.667Z,32.94
2023-03-19T09:53:19.107Z,32.93
2023-03-19T09:55:56.973Z,32.91
2023-03-19T09:58:34.258Z,32.91
2023-03-19T10:01:06.296Z,32.83
2023-03-19T10:04:03.981Z,32.81
2023-03-19T10:06:38.925Z,32.79
2023-03-19T10:09:23.911Z,32.76
2023-03-19T10:12:05.170Z,32.73
2023-03-19T10:14:41.098Z,32.70
2023-03-19T10:17:20.856Z,32.72
2023-03-19T10:20:28.097Z,32.68
2023-03-19T10:23:13.203Z,32.65
2023-03-19T10:25:47.193Z,32.58
2023-03-19T10:28:20.875Z,32.56
2023-03-19T10:31:00.037Z,32.54
2023-03-19T10:33:46.361Z,32.46
2023-03-19T10:36:16.950Z,32.45
2023-03-19T10:38:47.129Z,32.41
2023-03-19T10:41:34.768Z,32.38
2023-03-19T10:44:08.304Z,32.32
2023-03-19T10:46:44.522Z,32.30
2023-03-19T10:49:16.902Z,32.29
2023-03-19T10:51:48.696Z,32.27
2023-03-19T10:54:27.957Z,32.30
2023-03-19T10:57:01.068Z,32.18
2023-03-19T10:59:38.868Z,32.20
2023-03-19T11:02:34.080Z,32.19
2023-03-19T11:05:27.251Z,32.17
2023-03-19T11:08:04.355Z,32.04
2023-03-19T11:10:38.185Z,32.04
2023-03-19T11:13:18.370Z,32.04
2023-03-19T11:15:50.854Z,32.04
2023-03-19T11:18:27.641Z,31.89
2023-03-19T11:21:04.447Z,31.85
2023-03-19T11:23:45.080Z,31.85
2023-03-19T11:26:23.113Z,31.83
2023-03-19T11:28:54.647Z,31.78
2023-03-19T11:31:36.762Z,31.81
2023-03-19T11:34:34.462Z,31.77
2023-03-19T11:37:11.822Z,31.79
2023-03-19T11:40:00.691Z,31.77
2023-03-19T11:42:55.722Z,31.71
2023-03-19T11:45:33.191Z,31.64
2023-03-19T11:48:32.257Z,31.68
2023-03-19T11:51:08.339Z,31.65
2023-03-19T11:53:50.388Z,31.74
2023-03-19T11:56:41.834Z,31.74
2023-03-19T11:59:18.771Z,31.72
2023-03-19T12:02:03.984Z,31.70
2023-03-19T12:04:40.164Z,31.66
2023-03-19T12:07:21.985Z,31.62
2023-03-19T12:09:58.136Z,31.57
2023-03-19T12:12:37.356Z,31.55
2023-03-19T12:15:36.596Z,31.47
2023-03-19T12:18:18.687Z,31.46
2023-03-19T12:20:55.584Z,31.50
2023-03-19T12:23:35.989Z,31.54
2023-03-19T12:26:09.134Z,31.50
2023-03-19T12:28:59.011Z,31.40
2023-03-19T12:31:53.543Z,31.38
2023-03-19T12:34:27.104Z,31.35
2023-03-19T12:37:23.491Z,31.39
2023-03-19T12:40:09.189Z,31.33
2023-03-19T12:42:43.223Z,31.32
2023-03-19T12:45:24.996Z,31.40
2023-03-19T12:48:00.570Z,31.38
2023-03-19T12:50:33.719Z,31.34
2023-03-19T12:53:05.584Z,31.37
2023-03-19T12:55:52.272Z,31.34
2023-03-19T12:58:30.430Z,31.27
2023-03-19T13:01:16.695Z,31.25
2023-03-19T13:03:59.468Z,31.26
2023-03-19T13:06:43.556Z,31.35
2023-03-19T13:09:42.006Z,31.36
2023-03-19T13:12:26.737Z,31.35
2023-03-19T13:15:11.049Z,31.43
2023-03-19T13:17:49.601Z,31.43
2023-03-19T13:20:58.941Z,31.47
2023-03-19T13:23:34.506Z,31.51
2023-03-19T13:26:07.275Z,31.55
2023-03-19T13:28:40.800Z,31.64
2023-03-19T13:31:32.357Z,31.59
2023-03-19T13:34:20.460Z,31.67
2023-03-19T13:37:09.436Z,31.67
2023-03-19T13:39:40.311Z,31.64
2023-03-19T13:42:31.484Z,31.64
2023-03-19T13:45:27.291Z,31.63
2023-03-19T13:48:03.185Z,31.64
2023-03-19T13:51:12.915Z,31.63
2023-03-19T13:53:54.552Z,31.65
2023-03-19T13:58:55.016Z,31.68
2023-03-19T14:01:30.916Z,31.71
2023-03-19T14:04:17.286Z,31.75
2023-03-19T14:06:54.893Z,31.73
2023-03-19T14:09:33.442Z,31.73
2023-03-19T14:12:37.650Z,31.78
2023-03-19T14:15:21.691Z,31.77
2023-03-19T14:17:56.462Z,31.78
2023-03-19T14:20:37.427Z,31.76
2023-03-19T14:23:12.827Z,31.77
2023-03-19T14:26:13.178Z,31.76
2023-03-19T14:29:19.023Z,31.73
2023-03-19T14:31:58.162Z,31.74
2023-03-19T14:34:57.616Z,31.74
2023-03-19T14:37:32.161Z,31.72
2023-03-19T14:40:20.631Z,31.72
2023-03-19T14:42:56.335Z,31.78
2023-03-19T14:45:48.693Z,31.79
2023-03-19T14:48:35.068Z,31.80
2023-03-19T14:51:48.794Z,31.80
2023-03-19T14:54:47.051Z,31.79
2023-03-19T14:57:22.495Z,31.74
2023-03-19T14:59:53.247Z,31.73
2023-03-19T15:02:35.208Z,31.76
2023-03-19T15:05:12.231Z,31.76
2023-03-19T15:07:49.259Z,31.77
2023-03-19T15:10:24.593Z,31.75
2023-03-19T15:13:09.366Z,31.74
2023-03-19T15:15:46.644Z,31.74
2023-03-19T15:18:18.920Z,31.77
2023-03-19T15:20:56.535Z,31.72
2023-03-19T15:23:31.508Z,31.71
2023-03-19T15:26:04.025Z,31.71
2023-03-19T15:28:38.468Z,31.67
2023-03-19T15:31:28.791Z,31.70
2023-03-19T15:33:59.912Z,31.69
2023-03-19T15:36:35.794Z,31.68
2023-03-19T15:39:09.238Z,31.68
2023-03-19T15:41:43.477Z,31.66
2023-03-19T15:44:38.598Z,31.68
2023-03-19T15:47:13.641Z,31.63
2023-03-19T15:49:51.605Z,31.64
2023-03-19T15:52:45.032Z,31.64
2023-03-19T15:58:06.199Z,31.61
2023-03-19T16:00:40.380Z,31.61
2023-03-19T16:03:18.713Z,31.61
2023-03-19T16:05:54.398Z,31.63
2023-03-19T16:08:29.580Z,31.61
2023-03-19T16:11:16.489Z,31.63
2023-03-19T16:14:00.100Z,31.61
2023-03-19T16:16:35.576Z,31.60
2023-03-19T16:19:14.736Z,31.57
2023-03-19T16:21:46.044Z,31.58
2023-03-19T16:24:33.123Z,31.58
2023-03-19T16:27:19.324Z,31.57
2023-03-19T16:30:02.023Z,31.57
2023-03-19T16:32:33.972Z,31.54
2023-03-19T16:35:21.915Z,31.55
2023-03-19T16:37:56.879Z,31.55
2023-03-19T16:40:26.887Z,31.54
2023-03-19T16:42:58.333Z,31.53
2023-03-19T16:45:33.366Z,31.54
2023-03-19T16:48:08.370Z,31.52
2023-03-19T16:50:43.280Z,31.51
2023-03-19T16:53:31.511Z,31.50
2023-03-19T16:56:03.810Z,31.53
2023-03-19T16:58:39.324Z,31.52
2023-03-19T17:01:31.869Z,31.54
2023-03-19T17:04:01.973Z,31.51
2023-03-19T17:06:36.515Z,31.52
2023-03-19T17:09:06.708Z,31.53
2023-03-19T17:11:42.947Z,31.52
2023-03-19T17:14:22.241Z,31.50
2023-03-19T17:16:56.685Z,31.48
2023-03-19T17:19:30.122Z,31.49
2023-03-19T17:22:01.760Z,31.45
2023-03-19T17:24:36.579Z,31.46
2023-03-19T17:27:07.099Z,31.46
2023-03-19T17:29:37.165Z,31.47
2023-03-19T17:32:10.313Z,31.43
2023-03-19T17:34:40.721Z,31.44
2023-03-19T17:37:19.089Z,31.43
2023-03-19T17:39:49.179Z,31.42
2023-03-19T17:42:27.822Z,31.41
2023-03-19T17:45:00.605Z,31.42
2023-03-19T17:47:30.896Z,31.42
2023-03-19T17:50:01.552Z,31.42
2023-03-19T17:52:32.798Z,31.39
2023-03-19T17:55:02.622Z,31.39
2023-03-19T17:57:33.942Z,31.39
2023-03-19T18:00:04.154Z,31.41
2023-03-19T18:02:35.308Z,31.38
2023-03-19T18:05:06.240Z,31.37
2023-03-19T18:07:36.852Z,31.40
2023-03-19T18:10:06.982Z,31.37
2023-03-19T18:12:36.826Z,31.38
2023-03-19T18:15:07.050Z,31.36
2023-03-19T18:17:37.257Z,31.36
2023-03-19T18:20:08.497Z,31.38
2023-03-19T18:22:38.746Z,31.37
2023-03-19T18:25:09.156Z,31.36
2023-03-19T18:27:39.241Z,31.36
2023-03-19T18:30:09.720Z,31.37
2023-03-19T18:32:45.433Z,31.33
2023-03-19T18:35:30.378Z,31.39
2023-03-19T18:38:00.862Z,31.38
2023-03-19T18:40:34.069Z,31.38
2023-03-19T18:43:04.360Z,31.37
2023-03-19T18:45:35.224Z,31.37
2023-03-19T18:48:05.340Z,31.39
2023-03-19T18:50:35.431Z,31.37
2023-03-19T18:53:05.729Z,31.37
2023-03-19T18:55:36.317Z,31.38
2023-03-19T18:58:06.643Z,31.37
2023-03-19T19:00:40.115Z,31.37
2023-03-19T19:03:10.299Z,31.33
2023-03-19T19:05:40.267Z,31.35
2023-03-19T19:08:19.529Z,31.38
2023-03-19T19:10:53.734Z,31.34
2023-03-19T19:13:29.363Z,31.36
2023-03-19T19:15:59.826Z,31.33
2023-03-19T19:18:33.946Z,31.34
2023-03-19T19:21:04.157Z,31.31
2023-03-19T19:23:34.125Z,31.34
2023-03-19T19:26:04.364Z,31.35
2023-03-19T19:28:41.369Z,31.34
2023-03-19T19:31:24.337Z,31.33
2023-03-19T19:33:55.801Z,31.33
2023-03-19T19:36:26.881Z,31.34
2023-03-19T19:38:57.459Z,31.33
2023-03-19T19:41:29.433Z,31.32
2023-03-19T19:44:03.697Z,31.33
2023-03-19T19:46:34.745Z,31.31
2023-03-19T19:49:04.849Z,31.29
2023-03-19T19:51:34.932Z,31.27
2023-03-19T19:54:05.165Z,31.29
2023-03-19T19:56:35.223Z,31.28
2023-03-19T19:59:08.067Z,31.26
2023-03-19T20:01:38.195Z,31.25
2023-03-19T20:04:08.376Z,31.25
2023-03-19T20:06:38.735Z,31.28
2023-03-19T20:09:09.960Z,31.28
2023-03-19T20:11:40.190Z,31.28
2023-03-19T20:14:16.011Z,31.26
2023-03-19T20:16:46.366Z,31.27
2023-03-19T20:19:22.225Z,31.25
2023-03-19T20:21:53.169Z,31.27
2023-03-19T20:24:23.209Z,31.26
2023-03-19T20:26:53.413Z,31.27
2023-03-19T20:29:23.529Z,31.25
2023-03-19T20:31:53.509Z,31.26
2023-03-19T20:34:38.443Z,31.26
2023-03-19T20:37:09.058Z,31.24
2023-03-19T20:39:38.878Z,31.24
2023-03-19T20:42:15.615Z,31.23
2023-03-19T20:44:47.322Z,31.21
2023-03-19T20:47:27.949Z,31.21
2023-03-19T20:49:57.921Z,31.23
2023-03-19T20:52:28.139Z,31.24
2023-03-19T20:54:58.883Z,31.21
2023-03-19T20:57:33.723Z,31.22
2023-03-19T21:00:15.125Z,31.20
2023-03-19T21:02:45.745Z,31.21
2023-03-19T21:05:17.197Z,31.21
2023-03-19T21:07:49.762Z,31.20
2023-03-19T21:10:30.716Z,31.20
2023-03-19T21:13:01.897Z,31.19
2023-03-19T21:15:32.156Z,31.21
2023-03-19T21:18:02.295Z,31.20
2023-03-19T21:20:34.398Z,31.19
2023-03-19T21:23:27.639Z,31.17
2023-03-19T21:25:58.163Z,31.18
2023-03-19T21:28:32.611Z,31.19
2023-03-19T21:31:02.891Z,31.14
2023-03-19T21:33:35.314Z,31.16
2023-03-19T21:36:06.318Z,31.11
2023-03-19T21:38:37.343Z,31.14
2023-03-19T21:41:12.656Z,31.11
2023-03-19T21:43:46.737Z,31.13
2023-03-19T21:46:24.723Z,31.11
2023-03-19T21:49:00.495Z,31.14
2023-03-19T21:51:32.624Z,31.15
2023-03-19T21:54:02.652Z,31.12
2023-03-19T21:56:35.650Z,31.12
2023-03-19T21:59:12.551Z,31.10
2023-03-19T22:01:43.794Z,31.13
2023-03-19T22:04:14.255Z,31.13
2023-03-19T22:06:45.123Z,31.13
2023-03-19T22:09:15.621Z,31.11
2023-03-19T22:11:48.176Z,31.09
2023-03-19T22:14:26.968Z,31.11
2023-03-19T22:16:58.628Z,31.09
2023-03-19T22:19:28.765Z,31.10
2023-03-19T22:21:58.587Z,31.10
2023-03-19T22:24:28.455Z,31.15
2023-03-19T22:27:00.028Z,31.15
2023-03-19T22:29:30.267Z,31.13
2023-03-19T22:32:00.694Z,31.14
2023-03-19T22:34:30.871Z,31.13
2023-03-19T22:37:02.322Z,31.12
2023-03-19T22:39:32.714Z,31.13
2023-03-19T22:42:02.765Z,31.13
2023-03-19T22:44:33.501Z,31.13
2023-03-19T22:47:04.807Z,31.12
2023-03-19T22:49:36.571Z,31.12
2023-03-19T22:52:06.775Z,31.14
2023-03-19T22:54:37.955Z,31.19
2023-03-19T22:57:08.740Z,31.17
2023-03-19T23:02:18.832Z,31.14
2023-03-19T23:04:50.142Z,31.13
2023-03-19T23:07:21.260Z,31.04
2023-03-19T23:09:51.581Z,31.03
2023-03-19T23:12:22.655Z,30.99
2023-03-19T23:14:52.935Z,30.96
2023-03-19T23:17:23.157Z,30.97
2023-03-19T23:19:53.310Z,30.93
2023-03-19T23:22:23.772Z,30.93
2023-03-19T23:24:53.789Z,30.92
2023-03-19T23:27:27.093Z,30.95
2023-03-19T23:29:57.362Z,30.93
2023-03-19T23:32:28.828Z,30.91
2023-03-19T23:35:01.840Z,30.91
2023-03-19T23:37:32.175Z,30.91
2023-03-19T23:40:02.490Z,30.90
2023-03-19T23:42:34.210Z,30.92
2023-03-19T23:45:08.775Z,30.90
2023-03-19T23:47:39.145Z,30.92
2023-03-19T23:50:14.974Z,30.89
2023-03-19T23:52:45.057Z,30.91
2023-03-19T23:55:15.130Z,30.90
2023-03-19T23:57:46.606Z,30.90
